LGRP

Diagoras Airport

Rodes Island, Greece
TAF LGRP 221700Z 2218/2318 24016KT 9999 FEW040
Issued Valid From Valid To
Jul-22 @ 17:00 UTC
(3 hours ago)
Jul-22 @ 18:00 UTC
(2 hours ago)
Jul-23 @ 18:00 UTC
(in 22 hours)
Jul-22 @ 18:00 to Jul-23 @ 18:00
TAF LGRP 221700Z 2218/2318 24016KT 9999 FEW040
Wind Visibility Clouds
240° at 16 knots 10,000+ meters
  • Few at 4,000' AGL
TAF LGRP 221700Z 2218/2318 24016KT 9999 FEW040
Issued Jul-22 @ 17:00 UTC
(3 hours ago)
Valid From Jul-22 @ 18:00 UTC
(2 hours ago)
Valid To Jul-23 @ 18:00 UTC
(in 22 hours)
Jul-22 @ 18:00 - Jul-23 @ 18:00
Wind Visibility
240° at 16 knots 10,000+ meters
Clouds
  • Few at 4,000' AGL